createdAt,value
2019-01-18T00:01:23.976Z,98624.39
2019-01-18T00:05:25.220Z,98627.81
2019-01-18T00:09:26.558Z,98641.41
2019-01-18T00:13:27.898Z,98654.08
2019-01-18T00:17:29.817Z,98647.78
2019-01-18T00:21:31.976Z,98638.61
2019-01-18T00:25:33.968Z,98638.38
2019-01-18T00:29:35.223Z,98626.95
2019-01-18T00:33:36.520Z,98630.34
2019-01-18T00:37:37.726Z,98627.77
2019-01-18T00:41:39.001Z,98646.95
2019-01-18T00:45:40.522Z,98649.46
2019-01-18T00:49:41.793Z,98648.03
2019-01-18T00:53:43.096Z,98642.42
2019-01-18T00:57:44.826Z,98634.17
2019-01-18T01:01:46.127Z,98634.17
2019-01-18T01:05:47.431Z,98625.82
2019-01-18T01:09:48.647Z,98633.30
2019-01-18T01:13:50.292Z,98664.01
2019-01-18T01:17:51.948Z,98667.02
2019-01-18T01:21:53.265Z,98667.02
2019-01-18T01:25:54.465Z,98662.61
2019-01-18T01:29:55.890Z,98666.02
2019-01-18T01:33:57.099Z,98657.66
2019-01-18T01:45:47.240Z,98680.43
2019-01-18T01:49:48.494Z,98684.32
2019-01-18T01:53:49.935Z,98683.64
2019-01-18T01:57:51.150Z,98690.77
2019-01-18T02:01:52.369Z,98690.77
2019-01-18T02:05:53.571Z,98684.33
2019-01-18T02:09:54.631Z,98677.59
2019-01-18T02:13:55.847Z,98672.23
2019-01-18T02:17:57.162Z,98677.51
2019-01-18T02:21:58.645Z,98677.51
2019-01-18T02:25:59.692Z,98686.23
2019-01-18T02:30:01.282Z,98686.23
2019-01-18T02:42:15.530Z,98684.20
2019-01-18T02:46:17.191Z,98685.62
2019-01-18T02:50:19.841Z,98680.97
2019-01-18T02:54:20.840Z,98684.92
2019-01-18T02:58:22.147Z,98676.59
2019-01-18T03:02:23.176Z,98674.29
2019-01-18T03:06:24.756Z,98690.86
2019-01-18T03:10:28.142Z,98690.86
2019-01-18T03:14:29.186Z,98700.70
2019-01-18T03:18:31.530Z,98711.50
2019-01-18T03:22:32.590Z,98708.27
2019-01-18T03:26:33.863Z,98714.23
2019-01-18T03:30:35.562Z,98717.71
2019-01-18T03:34:36.500Z,98719.89
2019-01-18T03:38:37.565Z,98713.23
2019-01-18T03:42:38.517Z,98718.00
2019-01-18T03:46:39.801Z,98720.39
2019-01-18T03:50:41.022Z,98723.02
2019-01-18T03:54:42.109Z,98723.02
2019-01-18T03:58:43.530Z,98726.89
2019-01-18T04:02:44.580Z,98728.75
2019-01-18T04:10:58.958Z,98736.55
2019-01-18T04:15:00.236Z,98732.41
2019-01-18T04:19:03.759Z,98719.63
2019-01-18T04:23:06.298Z,98730.63
2019-01-18T04:27:07.613Z,98739.70
2019-01-18T04:31:09.033Z,98739.70
2019-01-18T04:35:10.538Z,98768.73
2019-01-18T04:39:11.782Z,98739.20
2019-01-18T04:43:13.092Z,98747.78
2019-01-18T04:47:14.329Z,98742.46
2019-01-18T04:51:15.599Z,98760.70
2019-01-18T04:55:16.784Z,98756.80
2019-01-18T04:59:17.983Z,98761.88
2019-01-18T05:03:19.192Z,98764.41
2019-01-18T05:07:20.509Z,98764.38
2019-01-18T05:11:21.488Z,98770.17
2019-01-18T05:15:24.884Z,98783.19
2019-01-18T05:19:27.113Z,98794.23
2019-01-18T05:23:28.260Z,98788.63
2019-01-18T05:27:29.689Z,98787.98
2019-01-18T05:31:31.050Z,98793.71
2019-01-18T05:35:32.077Z,98783.52
2019-01-18T05:39:33.153Z,98796.42
2019-01-18T05:43:34.133Z,98797.13
2019-01-18T05:47:35.153Z,98801.83
2019-01-18T05:51:36.163Z,98801.88
2019-01-18T05:55:37.218Z,98801.17
2019-01-18T05:59:38.218Z,98808.09
2019-01-18T06:03:39.262Z,98802.54
2019-01-18T06:07:40.293Z,98806.50
2019-01-18T06:11:41.381Z,98814.88
2019-01-18T06:15:42.393Z,98822.23
2019-01-18T06:19:43.443Z,98827.00
2019-01-18T06:23:44.398Z,98833.86
2019-01-18T06:27:45.538Z,98831.62
2019-01-18T06:31:46.808Z,98837.68
2019-01-18T06:35:47.838Z,98827.41
2019-01-18T06:39:48.856Z,98836.61
2019-01-18T06:43:50.038Z,98845.91
2019-01-18T06:47:51.083Z,98847.45
2019-01-18T06:51:52.198Z,98840.15
2019-01-18T06:55:53.181Z,98840.16
2019-01-18T06:59:54.768Z,98843.22
2019-01-18T07:03:55.729Z,98858.14
2019-01-18T07:07:56.795Z,98853.59
2019-01-18T07:11:57.759Z,98855.38
2019-01-18T07:15:58.948Z,98865.15
2019-01-18T07:19:59.944Z,98864.08
2019-01-18T07:24:01.019Z,98872.14
2019-01-18T07:28:02.070Z,98876.14
2019-01-18T07:32:03.096Z,98878.49
2019-01-18T07:36:04.335Z,98887.23
2019-01-18T07:40:05.681Z,98886.98
2019-01-18T07:44:06.906Z,98896.64
2019-01-18T07:48:08.323Z,98894.87
2019-01-18T07:52:09.341Z,98896.13
2019-01-18T07:56:10.371Z,98898.61
2019-01-18T08:00:16.399Z,98901.28
2019-01-18T08:04:17.465Z,98904.19
2019-01-18T08:08:18.425Z,98908.52
2019-01-18T08:12:20.210Z,98902.40
2019-01-18T08:16:21.226Z,98905.64
2019-01-18T08:26:16.381Z,98924.73
2019-01-18T08:30:19.891Z,98929.95
2019-01-18T08:34:20.996Z,98930.53
2019-01-18T08:38:22.342Z,98930.52
2019-01-18T08:42:23.431Z,98935.10
2019-01-18T08:46:24.416Z,98935.20
2019-01-18T08:50:25.541Z,98935.11
2019-01-18T08:54:26.618Z,98929.85
2019-01-18T08:58:27.651Z,98934.00
2019-01-18T09:02:28.641Z,98949.29
2019-01-18T09:06:29.713Z,98944.85
2019-01-18T09:10:31.160Z,98955.64
2019-01-18T09:14:32.113Z,98953.12
2019-01-18T09:18:33.091Z,98955.83
2019-01-18T09:22:34.117Z,98958.05
2019-01-18T09:26:35.100Z,98958.05
2019-01-18T09:30:36.487Z,98963.72
2019-01-18T09:34:37.472Z,98959.20
2019-01-18T09:38:38.583Z,98959.20
2019-01-18T09:42:40.143Z,98959.64
2019-01-18T09:46:41.176Z,98971.73
2019-01-18T09:50:42.175Z,98971.73
2019-01-18T09:54:43.220Z,98972.58
2019-01-18T09:58:44.207Z,98972.97
2019-01-18T10:02:45.231Z,98968.72
2019-01-18T10:06:46.196Z,98968.72
2019-01-18T10:10:47.281Z,98968.72
2019-01-18T10:14:48.305Z,98968.72
2019-01-18T10:18:49.336Z,98974.17
2019-01-18T10:22:50.411Z,98974.17
2019-01-18T10:26:51.460Z,98995.48
2019-01-18T10:30:52.435Z,98995.48
2019-01-18T10:34:53.477Z,98986.84
2019-01-18T10:38:54.430Z,98995.00
2019-01-18T10:42:55.626Z,98984.12
2019-01-18T10:46:56.859Z,98996.94
2019-01-18T10:50:57.877Z,98982.37
2019-01-18T10:54:58.876Z,98982.37
2019-01-18T10:58:59.931Z,98989.17
2019-01-18T11:03:00.858Z,98989.17
2019-01-18T11:07:01.871Z,99005.58
2019-01-18T11:11:03.916Z,99006.28
2019-01-18T11:15:05.068Z,99008.42
2019-01-18T11:19:06.073Z,99013.34
2019-01-18T11:23:07.099Z,99011.36
2019-01-18T11:36:39.614Z,99025.91
2019-01-18T11:40:41.660Z,99025.91
2019-01-18T11:44:42.825Z,99023.47
2019-01-18T11:48:44.205Z,99027.16
2019-01-18T12:01:40.225Z,99036.53
2019-01-18T12:05:41.720Z,99036.36
2019-01-18T12:09:42.834Z,99039.63
2019-01-18T12:23:24.385Z,99047.27
2019-01-18T12:27:25.810Z,99051.42
2019-01-18T12:31:26.890Z,99053.45
2019-01-18T12:35:27.866Z,99061.97
2019-01-18T12:39:29.428Z,99057.23
2019-01-18T12:54:25.250Z,99069.98
2019-01-18T12:58:27.408Z,99069.98
2019-01-18T13:02:35.182Z,99083.95
2019-01-18T13:06:32.061Z,99083.95
2019-01-18T13:10:35.662Z,99081.95
2019-01-18T13:14:36.634Z,99087.71
2019-01-18T13:18:38.165Z,99087.30
2019-01-18T13:22:39.135Z,99091.41
2019-01-18T13:26:40.133Z,99097.86
2019-01-18T13:30:42.800Z,99099.50
2019-01-18T13:34:43.797Z,99104.91
2019-01-18T13:38:44.930Z,99108.20
2019-01-18T13:42:47.986Z,99117.30
2019-01-18T13:46:48.951Z,99126.15
2019-01-18T13:50:50.513Z,99126.15
2019-01-18T13:54:51.502Z,99127.55
2019-01-18T13:58:53.211Z,99130.10
2019-01-18T14:02:54.498Z,99130.30
2019-01-18T14:06:56.260Z,99137.92
2019-01-18T14:10:57.414Z,99146.91
2019-01-18T14:14:58.574Z,99152.42
2019-01-18T14:18:59.523Z,99153.78
2019-01-18T14:23:00.544Z,99163.06
2019-01-18T14:27:01.529Z,99172.42
2019-01-18T14:31:03.603Z,99171.81
2019-01-18T14:35:04.645Z,99180.65
2019-01-18T14:39:09.525Z,99183.41
2019-01-18T14:43:10.503Z,99186.59
2019-01-18T14:47:11.539Z,99189.76
2019-01-18T14:51:12.539Z,99197.33
2019-01-18T14:55:14.094Z,99207.87
2019-01-18T14:59:15.179Z,99207.53
2019-01-18T15:03:17.034Z,99213.39
2019-01-18T15:07:17.983Z,99215.33
2019-01-18T15:11:20.025Z,99221.71
2019-01-18T15:15:22.102Z,99225.80
2019-01-18T15:19:23.606Z,99226.41
2019-01-18T15:23:24.562Z,99235.45
2019-01-18T15:27:26.137Z,99243.14
2019-01-18T15:31:27.127Z,99249.40
2019-01-18T15:35:35.464Z,99263.47
2019-01-18T15:39:36.482Z,99273.90
2019-01-18T15:43:38.678Z,99277.75
2019-01-18T15:47:39.668Z,99285.52
2019-01-18T15:51:40.769Z,99294.46
2019-01-18T15:55:42.178Z,99295.74
2019-01-18T15:59:44.743Z,99295.47
2019-01-18T16:03:45.753Z,99305.48
2019-01-18T16:07:46.780Z,99320.86
2019-01-18T16:11:48.523Z,99324.38
2019-01-18T16:15:54.126Z,99329.80
2019-01-18T16:19:55.108Z,99331.44
2019-01-18T16:23:57.403Z,99329.27
2019-01-18T16:27:58.352Z,99331.16
2019-01-18T16:31:59.328Z,99340.19
